Cape Charles, Virginia
Current Conditions -  °F | °C
As of 4:58 AM on Sunday 21 Dec 2014 (Local Time) from KLFI Reporting Station
Overcast Overcast  
Wind Chill: 27°   Ceiling: 7000
Heat Index: 31°   Visibility: 10mi
Dew Point: 28°   Wind: 5mph
Humidity: 88%   Direction: 310°NW
Pressure: 30.3"   Gusts: NA
Location:  37.27°N, 76.02°W
Report Text: KLFI 210958Z AUTO 31004KT 10SM OVC070 00/M02 A3030 RMK AO2 SLP268 T10041021 $
Loading
Personal Weather Stations






























Interactive Weather Map New forecast layout! Learn more

10-Day Weather Forecast

Advertisements
Track Severe Weather on mobile